Time;durP1;ratioP1;P1;durP2;ratioP2;P2;SDS_P1;SDS_P2;PMS_P1;PMS_P2;Temp;Humidity;BMP_temperature;BMP_pressure;BME280_temperature;BME280_humidity;BME280_pressure;Samples;Min_cycle;Max_cycle;Signal;HPM_P1;HPM_P2
2024/02/09 00:00:07;;;;;;;2.25;1.10;;;16.40;94.30;;;;;;5031448;28;20495;-44
2024/02/09 00:02:34;;;;;;;4.35;1.20;;;16.50;94.30;;;;;;5031282;28;20129;-43
2024/02/09 00:05:01;;;;;;;2.75;1.02;;;16.50;94.30;;;;;;5031097;28;20067;-44
2024/02/09 00:07:26;;;;;;;1.48;1.08;;;16.40;94.30;;;;;;5031489;28;20029;-43
2024/02/09 00:09:52;;;;;;;3.20;1.15;;;16.30;94.30;;;;;;5031186;28;20396;-44
2024/02/09 00:12:20;;;;;;;2.10;1.05;;;16.40;94.30;;;;;;5031208;28;20033;-45
2024/02/09 00:14:47;;;;;;;2.47;1.17;;;16.30;94.30;;;;;;5030951;28;20028;-44
2024/02/09 00:17:14;;;;;;;3.53;1.10;;;16.20;94.30;;;;;;5030731;28;20082;-45
2024/02/09 00:19:40;;;;;;;2.63;1.10;;;16.20;94.40;;;;;;5031023;28;20030;-45
2024/02/09 00:22:06;;;;;;;6.15;1.45;;;16.20;94.40;;;;;;5032022;28;20471;-45
2024/02/09 00:24:31;;;;;;;2.00;1.20;;;16.10;94.50;;;;;;5030621;28;20053;-45
2024/02/09 00:27:01;;;;;;;2.47;1.20;;;16.00;94.60;;;;;;5031409;28;20386;-45
2024/02/09 00:29:27;;;;;;;2.50;1.08;;;15.90;94.60;;;;;;5034772;28;20025;-45
2024/02/09 00:31:52;;;;;;;3.15;1.20;;;15.90;94.70;;;;;;5035171;28;20116;-46
2024/02/09 00:34:19;;;;;;;1.50;0.93;;;15.80;94.80;;;;;;5036463;28;20072;-44
2024/02/09 00:36:47;;;;;;;4.35;1.33;;;15.70;94.90;;;;;;5035740;28;20383;-44
2024/02/09 00:39:14;;;;;;;3.50;1.38;;;15.60;95.00;;;;;;5034516;28;20124;-43
2024/02/09 00:41:40;;;;;;;1.85;1.02;;;15.60;95.10;;;;;;5034656;28;20021;-44
2024/02/09 00:44:05;;;;;;;4.63;1.35;;;15.50;95.20;;;;;;5034522;28;20032;-44
2024/02/09 00:46:32;;;;;;;1.85;0.90;;;15.40;95.30;;;;;;5034959;28;20399;-43
2024/02/09 00:49:02;;;;;;;2.92;1.10;;;15.30;95.40;;;;;;5035039;28;20063;-45
2024/02/09 00:51:28;;;;;;;2.10;1.02;;;15.30;95.50;;;;;;5034659;28;20025;-45
2024/02/09 00:53:54;;;;;;;2.25;1.10;;;15.20;95.60;;;;;;5034403;28;20029;-45
2024/02/09 00:56:20;;;;;;;2.38;0.90;;;15.10;95.70;;;;;;5034450;28;20036;-45
2024/02/09 00:58:46;;;;;;;1.60;1.08;;;15.00;95.80;;;;;;5034475;28;20086;-45
2024/02/09 01:01:12;;;;;;;4.22;1.40;;;15.00;95.90;;;;;;5034612;28;20128;-45
2024/02/09 01:03:37;;;;;;;2.05;1.02;;;14.90;96.00;;;;;;5034306;28;20026;-43
2024/02/09 01:06:06;;;;;;;1.90;0.98;;;14.80;96.00;;;;;;5034494;28;20079;-44
2024/02/09 01:08:32;;;;;;;2.90;1.40;;;14.80;96.20;;;;;;5035288;28;20037;-45
2024/02/09 01:10:58;;;;;;;2.13;1.05;;;14.70;96.30;;;;;;5034418;28;20013;-45
2024/02/09 02:46:20;;;;;;;2.83;1.20;;;13.00;98.90;;;;;;5032624;28;20036;-44
2024/02/09 03:05:24;;;;;;;1.60;0.90;;;12.80;99.30;;;;;;5032080;28;20127;-45
2024/02/09 03:07:54;;;;;;;3.33;1.20;;;12.80;99.30;;;;;;5032102;28;20021;-45
2024/02/09 03:10:20;;;;;;;1.83;1.00;;;12.80;99.50;;;;;;5032161;28;20057;-44
2024/02/09 03:12:46;;;;;;;2.53;0.70;;;12.80;99.40;;;;;;5032328;28;20108;-44
2024/02/09 03:15:12;;;;;;;2.03;1.00;;;12.70;99.50;;;;;;5030963;28;20037;-45
2024/02/09 03:17:41;;;;;;;1.92;0.82;;;12.70;99.50;;;;;;5031951;28;20051;-46
2024/02/09 03:20:09;;;;;;;1.88;0.80;;;12.70;99.60;;;;;;5031837;28;20475;-45
2024/02/09 03:22:35;;;;;;;1.83;0.93;;;12.70;99.60;;;;;;5031906;28;20075;-45
2024/02/09 03:25:03;;;;;;;2.17;1.00;;;12.60;99.60;;;;;;5031709;28;20021;-46
2024/02/09 03:27:33;;;;;;;2.05;0.98;;;12.60;99.70;;;;;;5031784;28;20025;-46
2024/02/09 03:30:04;;;;;;;2.17;0.90;;;12.60;99.70;;;;;;5031750;28;20041;-45
2024/02/09 03:32:32;;;;;;;2.15;0.93;;;12.60;99.70;;;;;;5031721;28;20026;-45
2024/02/09 03:34:58;;;;;;;2.20;0.77;;;12.60;99.80;;;;;;5032096;28;20455;-44
2024/02/09 03:37:26;;;;;;;3.22;1.00;;;12.60;99.80;;;;;;5031918;28;20022;-45
2024/02/09 03:39:55;;;;;;;1.48;0.80;;;12.50;99.80;;;;;;5031671;28;20109;-44
2024/02/09 03:42:23;;;;;;;2.22;0.80;;;12.50;99.90;;;;;;5032820;28;20021;-44
2024/02/09 03:44:55;;;;;;;2.03;0.95;;;12.50;99.90;;;;;;5032098;28;20036;-44
2024/02/09 03:47:24;;;;;;;2.58;0.90;;;12.50;99.90;;;;;;5031610;28;20026;-46
2024/02/09 03:49:54;;;;;;;1.73;0.85;;;12.50;99.90;;;;;;5031474;28;20057;-45
2024/02/09 03:52:21;;;;;;;1.85;1.10;;;12.40;99.90;;;;;;5031796;28;20111;-45
2024/02/09 03:54:51;;;;;;;2.00;0.85;;;12.40;99.90;;;;;;5031430;28;20021;-45
2024/02/09 03:57:17;;;;;;;1.85;1.00;;;12.40;99.90;;;;;;5031310;28;20048;-45
2024/02/09 03:59:42;;;;;;;1.52;0.80;;;12.40;99.90;;;;;;5031815;28;20545;-42
2024/02/09 04:02:09;;;;;;;2.65;1.05;;;12.40;99.90;;;;;;5031252;28;20022;-43
2024/02/09 04:04:35;;;;;;;3.50;0.90;;;12.40;99.90;;;;;;5033038;28;20021;-44
2024/02/09 04:07:01;;;;;;;2.00;0.93;;;12.40;99.90;;;;;;5031621;28;20243;-44
2024/02/09 04:09:27;;;;;;;1.73;0.95;;;12.40;99.90;;;;;;5031180;28;20045;-44
2024/02/09 04:11:56;;;;;;;1.33;0.80;;;12.30;99.90;;;;;;5031213;28;20041;-44
2024/02/09 04:14:22;;;;;;;3.00;1.00;;;12.30;99.90;;;;;;5031211;28;20057;-46
2024/02/09 04:16:49;;;;;;;1.75;0.82;;;12.30;99.90;;;;;;5031373;28;20107;-45
2024/02/09 04:19:16;;;;;;;1.73;0.85;;;12.30;99.90;;;;;;5031030;28;20026;-45
2024/02/09 04:21:47;;;;;;;1.65;0.70;;;12.30;99.90;;;;;;5031332;28;20369;-45
2024/02/09 04:24:23;;;;;;;1.45;0.77;;;12.30;99.90;;;;;;5031058;28;20033;-45
2024/02/09 04:26:52;;;;;;;1.95;0.90;;;12.30;99.90;;;;;;5031099;28;20076;-45
2024/02/09 04:29:19;;;;;;;1.20;0.80;;;12.20;99.90;;;;;;5031381;28;20025;-45
2024/02/09 04:31:48;;;;;;;1.98;0.80;;;12.20;99.90;;;;;;5029779;28;20049;-46
2024/02/09 04:34:14;;;;;;;2.53;1.00;;;12.20;99.90;;;;;;5031014;28;20033;-46
2024/02/09 04:36:47;;;;;;;1.65;0.93;;;12.20;99.90;;;;;;5030957;28;20025;-45
2024/02/09 04:39:13;;;;;;;1.52;0.90;;;12.20;99.90;;;;;;5030825;28;20036;-46
2024/02/09 04:41:49;;;;;;;2.55;1.00;;;12.20;99.90;;;;;;5031027;28;20105;-44
2024/02/09 04:44:14;;;;;;;1.40;0.90;;;12.20;99.90;;;;;;5030929;28;20036;-46
2024/02/09 04:46:42;;;;;;;2.13;0.80;;;12.20;99.90;;;;;;5030905;28;20025;-46
2024/02/09 04:49:10;;;;;;;2.50;0.88;;;12.20;99.90;;;;;;5030873;28;20022;-45
2024/02/09 04:51:43;;;;;;;1.58;1.00;;;12.20;99.90;;;;;;5030878;28;20039;-45
2024/02/09 04:54:09;;;;;;;2.95;1.13;;;12.10;99.90;;;;;;5030762;28;20540;-44
2024/02/09 04:56:35;;;;;;;3.75;0.80;;;12.10;99.90;;;;;;5030958;28;20037;-45
2024/02/09 04:59:07;;;;;;;2.22;1.10;;;12.10;99.90;;;;;;5030675;28;20048;-46
2024/02/09 05:01:37;;;;;;;3.05;1.08;;;12.10;99.90;;;;;;5030848;28;20036;-45
2024/02/09 05:04:14;;;;;;;2.20;0.93;;;12.10;99.90;;;;;;5030560;28;20064;-45
2024/02/09 05:06:40;;;;;;;1.17;0.70;;;12.10;99.90;;;;;;5031014;28;20018;-44
2024/02/09 05:09:09;;;;;;;3.20;1.02;;;12.10;99.90;;;;;;5030872;28;20403;-44
2024/02/09 05:11:36;;;;;;;1.80;0.90;;;12.10;99.90;;;;;;5030695;28;20029;-45
2024/02/09 05:14:06;;;;;;;2.22;1.13;;;12.10;99.90;;;;;;5032677;28;20025;-45
2024/02/09 05:16:33;;;;;;;2.13;1.00;;;12.10;99.90;;;;;;5034046;28;20037;-45
2024/02/09 05:19:01;;;;;;;1.65;0.95;;;12.10;99.90;;;;;;5034021;28;20483;-44
2024/02/09 05:21:26;;;;;;;1.73;1.00;;;12.00;99.90;;;;;;5034286;28;20104;-44
2024/02/09 05:23:52;;;;;;;1.50;0.77;;;12.00;99.90;;;;;;5034296;28;20096;-44
2024/02/09 05:26:19;;;;;;;1.60;0.95;;;12.00;99.90;;;;;;5034022;28;20036;-45
2024/02/09 05:28:46;;;;;;;2.63;0.85;;;12.00;99.90;;;;;;5033992;28;20029;-45
2024/02/09 05:31:13;;;;;;;0.90;0.70;;;12.00;99.90;;;;;;5034088;28;20040;-45
2024/02/09 05:33:40;;;;;;;1.60;0.80;;;12.00;99.90;;;;;;5033843;28;20069;-44
2024/02/09 05:36:06;;;;;;;2.05;1.10;;;12.00;99.90;;;;;;5033913;28;20111;-45
2024/02/09 05:38:38;;;;;;;1.65;0.80;;;12.00;99.90;;;;;;5033766;28;20018;-45
2024/02/09 05:41:04;;;;;;;2.05;0.70;;;12.00;99.90;;;;;;5033936;28;20033;-45
2024/02/09 05:43:30;;;;;;;1.80;0.95;;;12.00;99.90;;;;;;5033839;28;20132;-43
2024/02/09 05:45:55;;;;;;;2.20;0.90;;;12.00;99.90;;;;;;5033723;28;20486;-44
2024/02/09 05:48:21;;;;;;;1.95;0.80;;;12.00;99.90;;;;;;5033573;28;20033;-44
2024/02/09 05:50:48;;;;;;;1.80;0.60;;;12.00;99.90;;;;;;5033717;28;20048;-45
2024/02/09 05:53:14;;;;;;;2.10;0.90;;;11.90;99.90;;;;;;5033738;28;20053;-44
2024/02/09 05:55:40;;;;;;;3.00;1.05;;;12.00;99.90;;;;;;5033686;28;20048;-45
2024/02/09 05:58:06;;;;;;;2.40;0.80;;;11.90;99.90;;;;;;5034062;28;20033;-44
2024/02/09 06:00:32;;;;;;;1.88;0.75;;;11.90;99.90;;;;;;5033418;28;20022;-44
2024/02/09 06:02:58;;;;;;;1.00;0.70;;;11.90;99.90;;;;;;5033602;28;20036;-46
2024/02/09 06:05:24;;;;;;;1.23;0.80;;;11.90;99.90;;;;;;5033394;28;20033;-44
2024/02/09 06:07:49;;;;;;;1.58;0.70;;;11.90;99.90;;;;;;5033414;28;20334;-45
2024/02/09 06:10:15;;;;;;;1.67;0.82;;;11.90;99.90;;;;;;5031965;28;20061;-43
2024/02/09 06:12:43;;;;;;;1.70;0.90;;;11.90;99.90;;;;;;5033500;28;20083;-45
2024/02/09 06:15:10;;;;;;;2.45;0.80;;;11.90;99.90;;;;;;5033700;28;20337;-44
2024/02/09 06:17:38;;;;;;;2.05;1.02;;;11.90;99.90;;;;;;5033146;28;20117;-45
2024/02/09 06:20:08;;;;;;;1.20;0.70;;;11.90;99.90;;;;;;5033258;28;20034;-44
2024/02/09 06:22:34;;;;;;;2.22;1.00;;;11.90;99.90;;;;;;5033239;28;20391;-46
2024/02/09 06:25:00;;;;;;;2.03;0.80;;;11.90;99.90;;;;;;5031890;28;20025;-44
2024/02/09 06:27:27;;;;;;;2.03;0.90;;;11.90;99.90;;;;;;5032964;28;20468;-46
2024/02/09 06:29:54;;;;;;;1.25;0.60;;;11.90;99.90;;;;;;5033613;28;20034;-43
2024/02/09 06:32:22;;;;;;;1.13;0.63;;;11.90;99.90;;;;;;5033043;28;20022;-45
2024/02/09 06:34:48;;;;;;;1.55;0.70;;;11.90;99.90;;;;;;5032866;28;20079;-45
2024/02/09 06:37:17;;;;;;;2.35;0.75;;;11.90;99.90;;;;;;5032789;28;20030;-46
2024/02/09 06:39:42;;;;;;;1.73;0.70;;;11.80;99.90;;;;;;5032731;28;20460;-45
2024/02/09 06:42:08;;;;;;;2.53;0.85;;;11.80;99.90;;;;;;5032853;28;20208;-44
2024/02/09 06:44:34;;;;;;;1.80;0.85;;;11.80;99.90;;;;;;5032862;28;20146;-44
2024/02/09 06:47:00;;;;;;;2.17;0.70;;;11.80;99.90;;;;;;5032763;28;20049;-44
2024/02/09 06:49:28;;;;;;;1.77;0.90;;;11.80;99.90;;;;;;5033106;28;20061;-42
2024/02/09 06:51:54;;;;;;;0.63;0.50;;;11.80;99.90;;;;;;5033170;28;20029;-46
2024/02/09 06:54:22;;;;;;;1.73;0.80;;;11.80;99.90;;;;;;5033936;28;20105;-45
2024/02/09 06:56:48;;;;;;;2.67;0.90;;;11.80;99.90;;;;;;5032785;28;20022;-45
2024/02/09 06:59:14;;;;;;;1.85;0.70;;;11.80;99.90;;;;;;5032616;28;20033;-44
2024/02/09 07:01:41;;;;;;;1.60;0.85;;;11.80;99.90;;;;;;5032504;28;20034;-45
2024/02/09 07:04:08;;;;;;;1.48;0.70;;;11.80;99.90;;;;;;5032301;28;20022;-44
2024/02/09 07:06:34;;;;;;;1.65;0.80;;;11.80;99.90;;;;;;5032357;28;20017;-43
2024/02/09 07:09:00;;;;;;;2.72;0.88;;;11.80;99.90;;;;;;5032274;28;20028;-45
2024/02/09 07:11:25;;;;;;;1.10;0.77;;;11.80;99.90;;;;;;5033318;28;20175;-44
2024/02/09 07:13:51;;;;;;;1.65;0.90;;;11.80;99.90;;;;;;5032407;28;20472;-46
2024/02/09 07:16:18;;;;;;;1.00;0.70;;;11.80;99.90;;;;;;5032927;28;20354;-45
2024/02/09 07:18:44;;;;;;;0.80;0.47;;;11.80;99.90;;;;;;5032555;28;20039;-44
2024/02/09 07:21:14;;;;;;;1.20;0.68;;;11.80;99.90;;;;;;5032207;28;20033;-45
2024/02/09 07:23:41;;;;;;;2.40;0.73;;;11.90;99.90;;;;;;5032043;28;20095;-45
2024/02/09 07:26:10;;;;;;;2.15;0.80;;;11.90;99.90;;;;;;5032009;28;20076;-46
2024/02/09 07:28:40;;;;;;;1.10;0.70;;;11.90;99.90;;;;;;5031776;28;20079;-44
2024/02/09 07:31:06;;;;;;;1.58;0.80;;;12.00;99.90;;;;;;5032200;28;20039;-43
2024/02/09 07:33:32;;;;;;;0.90;0.57;;;12.00;99.90;;;;;;5031900;28;20025;-45
2024/02/09 07:35:57;;;;;;;2.25;0.73;;;12.10;99.90;;;;;;5031541;28;20036;-45
2024/02/09 07:38:23;;;;;;;1.55;0.82;;;12.10;99.90;;;;;;5031779;28;20041;-45
2024/02/09 07:40:49;;;;;;;1.63;0.75;;;12.20;99.90;;;;;;5032484;28;20021;-45
2024/02/09 07:43:14;;;;;;;0.93;0.50;;;12.30;99.90;;;;;;5031810;28;20545;-43
2024/02/09 07:45:40;;;;;;;2.65;0.68;;;12.40;99.90;;;;;;5031763;28;20072;-44
2024/02/09 07:48:06;;;;;;;2.67;0.60;;;12.50;99.90;;;;;;5032243;28;20064;-45
2024/02/09 07:50:34;;;;;;;1.58;0.90;;;12.60;99.90;;;;;;5031500;28;20029;-45
2024/02/09 07:53:00;;;;;;;0.80;0.50;;;12.70;99.90;;;;;;5031473;28;20144;-45
2024/02/09 07:55:25;;;;;;;0.63;0.47;;;12.80;99.90;;;;;;5031422;28;20108;-44
2024/02/09 07:57:51;;;;;;;1.50;0.50;;;12.90;99.90;;;;;;5031353;28;20047;-45
2024/02/09 08:00:19;;;;;;;0.95;0.60;;;13.00;99.90;;;;;;5032626;28;20029;-45
2024/02/09 08:02:46;;;;;;;1.38;0.55;;;13.10;99.90;;;;;;5031845;28;20152;-44
2024/02/09 08:05:17;;;;;;;1.15;0.60;;;13.20;99.90;;;;;;5031583;28;20479;-46
2024/02/09 08:07:47;;;;;;;1.50;0.68;;;13.30;99.90;;;;;;5031774;28;20030;-45
2024/02/09 08:10:13;;;;;;;1.70;0.50;;;13.40;99.90;;;;;;5031357;28;20177;-45
2024/02/09 08:12:40;;;;;;;1.33;0.60;;;13.50;99.90;;;;;;5031463;28;20033;-45
2024/02/09 08:15:09;;;;;;;1.33;0.50;;;13.60;99.90;;;;;;5031147;28;20132;-45
2024/02/09 08:17:38;;;;;;;0.95;0.55;;;13.70;99.90;;;;;;5031568;28;20033;-45
2024/02/09 08:20:05;;;;;;;1.90;0.70;;;13.80;99.90;;;;;;5031495;28;20052;-43
2024/02/09 08:22:32;;;;;;;2.00;0.63;;;13.80;99.90;;;;;;5031667;28;20100;-45
2024/02/09 08:24:59;;;;;;;1.40;0.50;;;13.90;99.90;;;;;;5031122;28;20058;-46
2024/02/09 08:27:25;;;;;;;3.45;0.63;;;14.00;99.70;;;;;;5031191;28;20296;-46
2024/02/09 08:29:55;;;;;;;0.80;0.40;;;14.10;99.60;;;;;;5031072;28;20021;-45
2024/02/09 08:32:21;;;;;;;0.68;0.50;;;14.20;99.40;;;;;;5031178;28;20125;-45
2024/02/09 08:34:50;;;;;;;1.83;0.60;;;14.30;99.30;;;;;;5030973;28;20112;-46
2024/02/09 08:37:17;;;;;;;1.55;0.55;;;14.40;99.20;;;;;;5031393;28;20083;-44
2024/02/09 08:39:45;;;;;;;1.40;0.50;;;14.50;99.10;;;;;;5030011;28;20514;-43
2024/02/09 08:42:11;;;;;;;1.70;0.73;;;14.50;98.90;;;;;;5031078;28;20033;-44
2024/02/09 08:44:37;;;;;;;1.00;0.57;;;14.60;98.80;;;;;;5030882;28;20023;-45
2024/02/09 08:47:03;;;;;;;1.90;0.50;;;14.70;98.70;;;;;;5031036;28;20448;-44
2024/02/09 08:49:29;;;;;;;1.08;0.50;;;14.70;98.50;;;;;;5034439;28;20037;-44
2024/02/09 08:51:58;;;;;;;1.20;0.60;;;14.80;98.40;;;;;;5033820;28;20026;-45
2024/02/09 08:54:24;;;;;;;0.80;0.50;;;14.90;98.30;;;;;;5034722;28;20400;-45
2024/02/09 08:56:51;;;;;;;0.88;0.52;;;14.90;98.60;;;;;;5034731;28;20029;-46
2024/02/09 08:59:17;;;;;;;1.85;0.60;;;15.00;98.10;;;;;;5035173;28;20022;-45
2024/02/09 09:01:43;;;;;;;2.47;0.80;;;15.10;98.00;;;;;;5034563;28;20050;-44
2024/02/09 09:04:09;;;;;;;1.75;0.52;;;15.10;97.90;;;;;;5034546;28;20029;-43
2024/02/09 09:06:35;;;;;;;1.23;0.50;;;15.20;97.80;;;;;;5034864;28;20498;-44
2024/02/09 09:09:01;;;;;;;0.70;0.50;;;15.30;97.70;;;;;;5034449;28;20491;-45
2024/02/09 09:11:26;;;;;;;0.98;0.50;;;15.30;97.70;;;;;;5034505;28;20116;-45
2024/02/09 09:13:52;;;;;;;0.77;0.60;;;15.40;97.60;;;;;;5034404;28;20028;-45
2024/02/09 09:16:18;;;;;;;1.40;0.63;;;15.50;97.50;;;;;;5034293;28;20403;-44
2024/02/09 09:18:45;;;;;;;0.50;0.30;;;15.50;97.40;;;;;;5034160;28;20468;-45
2024/02/09 09:21:11;;;;;;;0.80;0.50;;;15.60;97.30;;;;;;5034191;28;20044;-45
2024/02/09 09:23:39;;;;;;;1.73;0.60;;;15.70;97.20;;;;;;5034182;28;20018;-46
2024/02/09 09:26:06;;;;;;;0.52;0.40;;;15.70;97.10;;;;;;5034171;28;20038;-45
2024/02/09 09:28:33;;;;;;;1.52;0.73;;;15.80;97.00;;;;;;5033915;28;20037;-45
2024/02/09 09:30:59;;;;;;;1.55;0.82;;;15.80;97.00;;;;;;5034075;28;20026;-45
2024/02/09 09:33:24;;;;;;;2.13;1.10;;;15.90;97.10;;;;;;5034051;28;20109;-45
2024/02/09 09:35:52;;;;;;;2.58;1.02;;;15.90;97.10;;;;;;5034193;28;20367;-45
2024/02/09 09:38:18;;;;;;;5.10;1.20;;;16.00;97.10;;;;;;5034648;28;20021;-44
2024/02/09 09:40:48;;;;;;;2.67;0.90;;;16.10;97.10;;;;;;5034186;28;20021;-45
2024/02/09 09:43:17;;;;;;;2.13;1.05;;;16.10;97.00;;;;;;5034151;28;20096;-45
2024/02/09 09:45:43;;;;;;;3.72;1.00;;;16.20;96.90;;;;;;5033796;28;20100;-45
2024/02/09 09:48:15;;;;;;;2.10;0.88;;;16.30;96.80;;;;;;5033891;28;20105;-45
2024/02/09 09:50:42;;;;;;;3.72;0.80;;;16.30;96.70;;;;;;5033711;28;20056;-46
2024/02/09 09:53:16;;;;;;;2.72;0.90;;;16.40;96.60;;;;;;5033831;28;20038;-45
2024/02/09 09:55:45;;;;;;;2.28;1.20;;;16.50;96.50;;;;;;5033681;28;20083;-44
2024/02/09 09:58:11;;;;;;;2.35;0.85;;;16.50;96.40;;;;;;5033606;28;20068;-45
2024/02/09 10:00:42;;;;;;;2.58;0.90;;;16.60;96.30;;;;;;5033340;28;20032;-45
2024/02/09 10:03:08;;;;;;;1.45;0.70;;;16.60;96.20;;;;;;5033911;28;20057;-46
2024/02/09 10:05:37;;;;;;;3.05;0.90;;;16.60;96.00;;;;;;5033380;28;20068;-45
2024/02/09 10:08:03;;;;;;;2.50;1.10;;;16.70;96.00;;;;;;5033459;28;20095;-44
2024/02/09 10:10:29;;;;;;;4.03;0.80;;;16.70;95.90;;;;;;5033310;28;20484;-45
2024/02/09 10:13:14;;;;;;;2.97;1.10;;;16.80;95.80;;;;;;5033986;28;20029;-44
2024/02/09 10:15:45;;;;;;;1.85;0.75;;;16.90;95.70;;;;;;5033731;28;20502;-45
2024/02/09 10:18:11;;;;;;;3.28;1.23;;;16.90;95.60;;;;;;5033221;28;20108;-44
2024/02/09 10:20:38;;;;;;;2.67;0.80;;;16.90;95.50;;;;;;5033907;28;20112;-44
2024/02/09 10:23:04;;;;;;;2.55;0.90;;;17.00;95.50;;;;;;5033607;28;20108;-45
2024/02/09 10:25:33;;;;;;;1.55;0.70;;;17.00;95.40;;;;;;5032811;28;20558;-46
2024/02/09 10:28:00;;;;;;;2.15;0.80;;;17.10;95.30;;;;;;5032944;28;20072;-44
2024/02/09 10:30:29;;;;;;;2.92;0.75;;;17.10;95.20;;;;;;5033384;28;20492;-44
2024/02/09 10:32:55;;;;;;;1.95;0.90;;;17.10;95.20;;;;;;5033001;28;20403;-45
2024/02/09 10:35:20;;;;;;;3.60;0.80;;;17.10;95.10;;;;;;5032832;28;20027;-46
2024/02/09 10:37:47;;;;;;;2.67;0.85;;;17.20;95.10;;;;;;5032705;28;20124;-46
2024/02/09 10:40:13;;;;;;;2.08;0.80;;;17.20;95.00;;;;;;5032638;28;20021;-45
2024/02/09 10:42:44;;;;;;;1.45;0.73;;;17.20;94.90;;;;;;5032727;28;20025;-45
2024/02/09 10:45:12;;;;;;;2.30;1.00;;;17.30;94.90;;;;;;5032721;28;20096;-46
2024/02/09 10:47:39;;;;;;;2.28;0.80;;;17.30;94.80;;;;;;5032686;28;20021;-45
2024/02/09 10:50:06;;;;;;;1.95;0.88;;;17.30;94.80;;;;;;5032555;28;20073;-43
2024/02/09 10:52:44;;;;;;;1.95;0.82;;;17.40;94.80;;;;;;5032671;28;20128;-45
2024/02/09 10:55:11;;;;;;;1.85;0.98;;;17.40;94.70;;;;;;5033102;28;20086;-46
2024/02/09 10:57:38;;;;;;;1.85;0.82;;;17.40;94.70;;;;;;5032375;28;20059;-45
2024/02/09 11:00:05;;;;;;;1.48;0.80;;;17.40;94.70;;;;;;5032310;28;20057;-43
2024/02/09 11:02:33;;;;;;;1.63;0.77;;;17.40;94.70;;;;;;5032422;28;20523;-44
2024/02/09 11:05:00;;;;;;;2.60;0.70;;;17.40;94.70;;;;;;5032501;28;20025;-44
2024/02/09 11:07:28;;;;;;;2.38;0.90;;;17.40;94.60;;;;;;5032433;28;20029;-44
2024/02/09 11:09:54;;;;;;;1.48;0.60;;;17.40;94.60;;;;;;5032131;28;20498;-44
2024/02/09 11:12:19;;;;;;;1.77;0.88;;;17.40;94.90;;;;;;5031739;28;20057;-45
2024/02/09 11:14:45;;;;;;;1.63;0.60;;;17.50;94.60;;;;;;5032045;28;20377;-45
2024/02/09 11:17:15;;;;;;;1.15;0.73;;;17.50;94.50;;;;;;5031906;28;20021;-43
2024/02/09 11:19:42;;;;;;;1.58;0.80;;;17.50;94.50;;;;;;5031928;28;20369;-45
2024/02/09 11:22:09;;;;;;;3.03;0.85;;;17.50;94.40;;;;;;5032139;28;20360;-45
2024/02/09 11:24:35;;;;;;;1.13;0.77;;;17.60;94.40;;;;;;5032015;28;20036;-45
2024/02/09 11:27:06;;;;;;;1.42;0.70;;;17.60;94.40;;;;;;5032956;28;20315;-46
2024/02/09 11:29:32;;;;;;;2.05;0.90;;;17.60;94.30;;;;;;5031971;28;20021;-43
2024/02/09 11:32:02;;;;;;;1.38;0.50;;;17.60;94.30;;;;;;5031676;28;20116;-44
2024/02/09 11:34:30;;;;;;;1.35;0.70;;;17.60;94.20;;;;;;5032004;28;20025;-45
2024/02/09 11:37:00;;;;;;;0.90;0.50;;;17.70;94.20;;;;;;5031734;28;20045;-44
2024/02/09 11:39:27;;;;;;;1.00;0.70;;;17.60;94.20;;;;;;5031583;28;20022;-43
2024/02/09 11:41:53;;;;;;;1.52;0.85;;;17.70;94.10;;;;;;5031715;28;20021;-45
2024/02/09 11:44:20;;;;;;;1.30;0.77;;;17.70;94.10;;;;;;5031543;28;20029;-44
2024/02/09 11:46:46;;;;;;;0.95;0.60;;;17.70;94.10;;;;;;5031549;28;20096;-43
2024/02/09 11:49:12;;;;;;;2.90;0.88;;;17.70;94.10;;;;;;5031585;28;20021;-45
2024/02/09 11:51:38;;;;;;;1.67;0.75;;;17.70;94.00;;;;;;5031579;28;20387;-44
2024/02/09 11:54:14;;;;;;;1.25;0.68;;;17.70;94.00;;;;;;5031651;28;20033;-44
2024/02/09 11:56:41;;;;;;;2.00;1.08;;;17.70;94.00;;;;;;5031769;28;20030;-45
2024/02/09 11:59:10;;;;;;;1.20;0.70;;;17.70;93.90;;;;;;5031193;28;20048;-43
2024/02/09 12:01:39;;;;;;;2.67;0.70;;;17.70;93.90;;;;;;5031436;28;20396;-44
2024/02/09 12:04:05;;;;;;;1.20;0.70;;;17.80;93.90;;;;;;5031284;28;20076;-45
2024/02/09 12:06:31;;;;;;;1.67;0.63;;;17.80;93.90;;;;;;5031404;28;20464;-44
2024/02/09 12:08:56;;;;;;;0.75;0.55;;;17.80;93.90;;;;;;5031281;28;20493;-44
2024/02/09 12:11:23;;;;;;;1.38;0.63;;;17.80;93.90;;;;;;5031275;28;20045;-44
2024/02/09 12:13:49;;;;;;;0.88;0.60;;;17.80;93.80;;;;;;5031237;28;20479;-44
2024/02/09 12:16:16;;;;;;;1.13;0.60;;;17.80;93.80;;;;;;5031797;28;20025;-44
2024/02/09 12:18:57;;;;;;;1.55;1.00;;;17.80;93.80;;;;;;5031144;28;20037;-44
2024/02/09 12:21:23;;;;;;;2.75;0.60;;;17.80;93.80;;;;;;5031660;28;20021;-45
2024/02/09 12:23:50;;;;;;;0.98;0.60;;;17.80;93.80;;;;;;5033064;28;20018;-45
2024/02/09 12:26:16;;;;;;;1.13;0.70;;;17.80;93.80;;;;;;5035313;28;20064;-45
2024/02/09 12:28:42;;;;;;;2.05;0.70;;;17.80;93.80;;;;;;5035310;28;20021;-45
2024/02/09 12:31:08;;;;;;;1.50;0.60;;;17.70;93.80;;;;;;5035333;28;20025;-45
2024/02/09 12:33:45;;;;;;;2.42;0.65;;;17.80;93.80;;;;;;5035293;28;20035;-44
2024/02/09 12:36:14;;;;;;;1.02;0.43;;;17.80;93.80;;;;;;5035044;28;20044;-44
2024/02/09 12:38:42;;;;;;;1.73;0.60;;;17.80;93.80;;;;;;5035667;28;20025;-44
2024/02/09 12:41:09;;;;;;;0.88;0.60;;;17.70;93.80;;;;;;5035503;28;20101;-44
2024/02/09 12:43:35;;;;;;;1.42;0.60;;;17.80;93.80;;;;;;5035157;28;20032;-45
2024/02/09 12:46:01;;;;;;;1.70;0.77;;;17.70;93.80;;;;;;5034863;28;20021;-45
2024/02/09 12:48:28;;;;;;;1.55;0.52;;;17.70;93.80;;;;;;5034872;28;20045;-45
2024/02/09 12:50:57;;;;;;;1.50;0.60;;;17.70;93.80;;;;;;5034750;28;20399;-44
2024/02/09 12:53:24;;;;;;;1.17;0.70;;;17.70;93.80;;;;;;5034833;28;20064;-46
2024/02/09 12:55:50;;;;;;;1.20;0.55;;;17.70;93.80;;;;;;5034710;28;20031;-45
2024/02/09 12:58:19;;;;;;;1.70;0.70;;;17.70;93.80;;;;;;5034802;28;20096;-45
2024/02/09 13:00:45;;;;;;;1.67;0.77;;;17.60;93.80;;;;;;5034484;28;20022;-44
2024/02/09 13:03:11;;;;;;;2.05;0.85;;;17.70;93.80;;;;;;5034544;28;20029;-46
2024/02/09 13:05:37;;;;;;;1.27;0.68;;;17.60;93.80;;;;;;5034398;28;20055;-44
2024/02/09 13:08:03;;;;;;;1.40;0.70;;;17.60;93.80;;;;;;5034426;28;20041;-45
2024/02/09 13:10:28;;;;;;;1.65;0.80;;;17.60;93.80;;;;;;5035129;28;20068;-45
2024/02/09 13:12:54;;;;;;;1.42;0.90;;;17.60;93.80;;;;;;5034622;28;20026;-45
2024/02/09 13:15:21;;;;;;;0.88;0.50;;;17.70;93.90;;;;;;5034381;28;20033;-44
2024/02/09 13:17:46;;;;;;;1.38;0.80;;;17.70;93.90;;;;;;5034353;28;20029;-46
2024/02/09 13:20:12;;;;;;;1.52;0.70;;;17.60;93.90;;;;;;5034043;28;20419;-44
2024/02/09 13:22:38;;;;;;;1.27;0.60;;;17.60;93.90;;;;;;5032912;28;20033;-46
2024/02/09 13:25:05;;;;;;;1.35;0.77;;;17.60;93.90;;;;;;5034569;28;20044;-45
2024/02/09 13:27:31;;;;;;;1.52;0.60;;;17.60;93.90;;;;;;5034193;28;20112;-44
2024/02/09 13:29:57;;;;;;;1.02;0.68;;;17.60;93.90;;;;;;5034682;28;20068;-44
2024/02/09 13:32:26;;;;;;;1.52;0.70;;;17.60;93.90;;;;;;5034945;28;20068;-44
2024/02/09 13:34:52;;;;;;;1.40;0.80;;;17.60;93.90;;;;;;5033411;28;20033;-43
2024/02/09 13:37:18;;;;;;;1.60;0.75;;;17.50;93.90;;;;;;5033932;28;20549;-43
2024/02/09 13:39:44;;;;;;;1.70;0.88;;;17.60;94.00;;;;;;5033858;28;20065;-45
2024/02/09 13:42:09;;;;;;;1.27;0.80;;;17.60;94.00;;;;;;5034107;28;20460;-45
2024/02/09 13:44:37;;;;;;;0.80;0.60;;;17.50;93.90;;;;;;5033760;28;20107;-43
2024/02/09 13:47:04;;;;;;;1.83;0.73;;;17.50;94.00;;;;;;5033855;28;20033;-44
2024/02/09 13:49:30;;;;;;;4.32;1.08;;;17.50;94.10;;;;;;5033818;28;20033;-44
2024/02/09 13:51:57;;;;;;;3.53;1.00;;;17.50;94.10;;;;;;5033822;28;20168;-44
2024/02/09 13:54:23;;;;;;;2.50;1.35;;;17.50;94.20;;;;;;5033627;28;20029;-45
2024/02/09 13:56:49;;;;;;;3.40;1.30;;;17.50;94.20;;;;;;5033571;28;20048;-45
2024/02/09 13:59:15;;;;;;;2.97;1.48;;;17.50;94.20;;;;;;5033424;28;20025;-45
2024/02/09 14:01:40;;;;;;;3.90;1.35;;;17.50;94.20;;;;;;5033759;28;20033;-45
2024/02/09 14:04:07;;;;;;;4.60;1.38;;;17.50;94.20;;;;;;5033492;28;20492;-44
2024/02/09 14:06:35;;;;;;;3.97;1.25;;;17.40;94.20;;;;;;5033382;28;20100;-44
2024/02/09 14:09:01;;;;;;;4.60;1.30;;;17.40;94.20;;;;;;5033339;28;20024;-45
2024/02/09 14:11:27;;;;;;;2.70;1.13;;;17.40;94.20;;;;;;5033401;28;20025;-45
2024/02/09 14:13:53;;;;;;;2.25;1.05;;;17.40;94.30;;;;;;5033417;28;20053;-45
2024/02/09 14:16:22;;;;;;;2.45;1.20;;;17.40;94.30;;;;;;5033620;28;20048;-44
2024/02/09 14:18:48;;;;;;;2.22;1.20;;;17.40;94.30;;;;;;5033130;28;20399;-45
2024/02/09 14:21:13;;;;;;;3.80;1.42;;;17.30;94.30;;;;;;5033043;28;20025;-44
2024/02/09 14:23:39;;;;;;;3.28;1.25;;;17.30;94.30;;;;;;5033201;28;20022;-44
2024/02/09 14:26:08;;;;;;;3.25;1.02;;;17.30;94.60;;;;;;5033096;28;20411;-44
2024/02/09 14:28:33;;;;;;;3.35;1.25;;;17.30;94.30;;;;;;5032829;28;20476;-46
2024/02/09 14:31:00;;;;;;;2.55;1.20;;;17.20;94.40;;;;;;5033026;28;20108;-44
2024/02/09 14:33:26;;;;;;;4.13;1.55;;;17.30;94.60;;;;;;5030016;28;20029;-44
2024/02/09 14:35:52;;;;;;;6.72;1.33;;;17.30;94.60;;;;;;5031112;28;20029;-45